Webcam Flughafen St.Gallen-Altenrhein

Live-Bilder und Zeitraffer LSZR / ACH.

 

Live aus Altenrhein
LIVE
LSZR 312250Z AUTO 26006KT 220V290 1000 R10/1300U BCFG NCD 08/08 Q1023 REDZ
Zeitraffer heute